createdAt,value
2022-09-12T00:02:29.129Z,80.70
2022-09-12T00:05:00.018Z,80.42
2022-09-12T00:07:30.987Z,80.36
2022-09-12T00:10:01.549Z,80.68
2022-09-12T00:12:32.473Z,80.54
2022-09-12T00:15:03.350Z,80.70
2022-09-12T00:17:34.039Z,80.72
2022-09-12T00:20:05.279Z,80.56
2022-09-12T00:22:36.416Z,80.70
2022-09-12T00:25:08.457Z,80.57
2022-09-12T00:27:39.166Z,80.73
2022-09-12T00:30:10.341Z,80.86
2022-09-12T00:32:41.278Z,80.87
2022-09-12T00:35:11.985Z,80.73
2022-09-12T00:37:42.790Z,80.86
2022-09-12T00:40:14.050Z,80.72
2022-09-12T00:42:44.871Z,80.92
2022-09-12T00:45:29.547Z,81.09
2022-09-12T00:48:05.133Z,80.88
2022-09-12T00:50:36.509Z,81.17
2022-09-12T00:53:09.267Z,80.88
2022-09-12T00:55:44.534Z,80.53
2022-09-12T00:58:22.898Z,80.74
2022-09-12T01:00:54.396Z,80.76
2022-09-12T01:03:27.760Z,80.73
2022-09-12T01:06:31.192Z,80.74
2022-09-12T01:09:06.421Z,80.41
2022-09-12T01:11:42.817Z,80.63
2022-09-12T01:14:13.853Z,80.68
2022-09-12T01:16:44.954Z,80.53
2022-09-12T01:19:45.875Z,80.74
2022-09-12T01:22:34.654Z,80.80
2022-09-12T01:25:33.160Z,80.85
2022-09-12T01:28:28.878Z,80.73
2022-09-12T01:31:25.147Z,80.65
2022-09-12T01:34:10.976Z,80.85
2022-09-12T01:36:53.684Z,80.72
2022-09-12T01:39:38.721Z,80.39
2022-09-12T01:42:44.991Z,80.78
2022-09-12T01:45:44.147Z,80.67
2022-09-12T01:48:25.698Z,80.34
2022-09-12T01:51:21.006Z,80.38
2022-09-12T01:54:00.013Z,80.81
2022-09-12T01:56:34.152Z,80.30
2022-09-12T01:59:14.074Z,80.64
2022-09-12T02:01:57.604Z,80.79
2022-09-12T02:05:16.641Z,80.62
2022-09-12T02:07:52.794Z,80.47
2022-09-12T02:10:32.883Z,80.79
2022-09-12T02:13:26.764Z,80.52
2022-09-12T02:16:04.857Z,80.88
2022-09-12T02:18:37.144Z,80.62
2022-09-12T02:21:09.957Z,80.74
2022-09-12T02:23:48.936Z,80.58
2022-09-12T02:26:45.341Z,80.43
2022-09-12T02:29:16.185Z,80.26
2022-09-12T02:31:54.695Z,80.59
2022-09-12T02:34:42.507Z,80.56
2022-09-12T02:37:48.935Z,80.89
2022-09-12T02:40:21.094Z,80.61
2022-09-12T02:42:53.237Z,80.25
2022-09-12T02:45:26.045Z,80.11
2022-09-12T02:48:00.918Z,80.06
2022-09-12T02:50:32.219Z,80.23
2022-09-12T02:53:07.567Z,80.41
2022-09-12T02:55:41.538Z,80.27
2022-09-12T02:58:18.701Z,80.45
2022-09-12T03:01:00.639Z,80.64
2022-09-12T03:04:15.166Z,80.02
2022-09-12T03:07:01.839Z,80.25
2022-09-12T03:09:50.937Z,79.83
2022-09-12T03:12:21.517Z,79.67
2022-09-12T03:14:57.798Z,79.86
2022-09-12T03:17:33.987Z,79.13
2022-09-12T03:20:19.730Z,79.10
2022-09-12T03:22:59.222Z,79.02
2022-09-12T03:25:41.198Z,79.59
2022-09-12T03:28:18.665Z,79.66
2022-09-12T03:30:51.549Z,79.07
2022-09-12T03:33:25.317Z,79.05
2022-09-12T03:35:57.939Z,79.38
2022-09-12T03:38:28.717Z,79.59
2022-09-12T03:40:59.558Z,79.47
2022-09-12T03:43:30.289Z,79.37
2022-09-12T03:46:01.405Z,79.45
2022-09-12T03:48:32.110Z,79.50
2022-09-12T03:51:08.282Z,79.37
2022-09-12T03:53:39.108Z,79.78
2022-09-12T03:56:14.881Z,79.40
2022-09-12T03:58:45.694Z,79.49
2022-09-12T04:01:19.305Z,79.32
2022-09-12T04:03:53.350Z,79.28
2022-09-12T04:06:25.694Z,78.75
2022-09-12T04:08:58.240Z,79.02
2022-09-12T04:11:29.058Z,79.35
2022-09-12T04:13:59.846Z,79.29
2022-09-12T04:16:30.896Z,79.29
2022-09-12T04:19:02.676Z,79.64
2022-09-12T04:21:34.091Z,79.46
2022-09-12T04:24:04.594Z,79.56
2022-09-12T04:26:35.546Z,79.46
2022-09-12T04:29:06.339Z,80.00
2022-09-12T04:31:37.358Z,79.75
2022-09-12T04:34:08.372Z,79.83
2022-09-12T04:36:40.123Z,79.88
2022-09-12T04:39:11.273Z,79.92
2022-09-12T04:41:42.600Z,79.95
2022-09-12T04:44:17.860Z,79.85
2022-09-12T04:46:50.677Z,79.92
2022-09-12T04:49:22.052Z,79.62
2022-09-12T04:51:56.189Z,79.88
2022-09-12T04:54:27.043Z,79.99
2022-09-12T04:56:57.870Z,79.75
2022-09-12T04:59:30.319Z,80.00
2022-09-12T05:02:01.497Z,79.87
2022-09-12T05:04:32.406Z,79.97
2022-09-12T05:07:03.306Z,79.88
2022-09-12T05:09:34.659Z,79.76
2022-09-12T05:12:06.258Z,79.66
2022-09-12T05:14:37.474Z,79.65
2022-09-12T05:17:08.694Z,79.87
2022-09-12T05:19:39.780Z,79.55
2022-09-12T05:22:10.516Z,79.41
2022-09-12T05:24:42.053Z,79.46
2022-09-12T05:27:13.175Z,79.63
2022-09-12T05:29:43.972Z,79.55
2022-09-12T05:32:15.360Z,79.39
2022-09-12T05:34:45.905Z,79.42
2022-09-12T05:37:16.857Z,79.41
2022-09-12T05:39:48.787Z,79.20
2022-09-12T05:42:19.583Z,79.51
2022-09-12T05:44:50.337Z,79.36
2022-09-12T05:47:21.721Z,79.00
2022-09-12T05:49:53.882Z,78.88
2022-09-12T05:52:24.795Z,78.85
2022-09-12T05:54:55.470Z,79.31
2022-09-12T05:57:26.397Z,79.16
2022-09-12T05:59:57.284Z,79.04
2022-09-12T06:02:28.234Z,78.87
2022-09-12T06:04:59.061Z,79.22
2022-09-12T06:07:29.928Z,78.87
2022-09-12T06:10:01.919Z,79.09
2022-09-12T06:12:33.064Z,78.78
2022-09-12T06:15:03.932Z,78.63
2022-09-12T06:17:35.192Z,78.76
2022-09-12T06:20:06.743Z,78.79
2022-09-12T06:22:37.528Z,78.25
2022-09-12T06:25:08.564Z,78.42
2022-09-12T06:27:39.325Z,78.51
2022-09-12T06:30:10.579Z,78.53
2022-09-12T06:32:41.073Z,78.45
2022-09-12T06:35:13.098Z,78.55
2022-09-12T06:37:46.867Z,78.45
2022-09-12T06:40:17.823Z,78.49
2022-09-12T06:42:48.755Z,78.31
2022-09-12T06:45:35.270Z,78.09
2022-09-12T06:48:06.287Z,78.41
2022-09-12T06:50:37.180Z,77.99
2022-09-12T06:53:07.993Z,78.25
2022-09-12T06:55:38.974Z,78.22
2022-09-12T06:58:09.938Z,77.94
2022-09-12T07:00:41.364Z,78.12
2022-09-12T07:03:12.757Z,77.75
2022-09-12T07:05:43.169Z,77.88
2022-09-12T07:08:13.975Z,77.64
2022-09-12T07:10:44.635Z,77.82
2022-09-12T07:13:16.589Z,77.95
2022-09-12T07:15:47.397Z,77.84
2022-09-12T07:18:18.270Z,77.53
2022-09-12T07:20:49.227Z,77.74
2022-09-12T07:23:20.086Z,77.68
2022-09-12T07:26:01.019Z,77.78
2022-09-12T07:28:34.350Z,77.54
2022-09-12T07:31:17.317Z,77.79
2022-09-12T07:33:52.372Z,77.40
2022-09-12T07:36:30.191Z,77.74
2022-09-12T07:39:01.744Z,77.32
2022-09-12T07:41:35.477Z,77.56
2022-09-12T07:44:09.414Z,77.22
2022-09-12T07:46:41.155Z,77.08
2022-09-12T07:49:12.101Z,77.07
2022-09-12T07:51:43.824Z,77.08
2022-09-12T07:54:14.687Z,77.15
2022-09-12T07:56:45.526Z,76.86
2022-09-12T07:59:25.510Z,76.84
2022-09-12T08:02:07.306Z,76.73
2022-09-12T08:04:39.164Z,77.35
2022-09-12T08:07:09.956Z,76.96
2022-09-12T08:09:40.902Z,76.93
2022-09-12T08:12:11.995Z,77.19
2022-09-12T08:14:42.866Z,77.21
2022-09-12T08:17:13.601Z,77.29
2022-09-12T08:19:44.596Z,77.24
2022-09-12T08:22:16.439Z,77.25
2022-09-12T08:24:47.448Z,77.04
2022-09-12T08:27:19.019Z,76.81
2022-09-12T08:29:50.023Z,76.76
2022-09-12T08:32:20.806Z,76.50
2022-09-12T08:34:51.944Z,76.86
2022-09-12T08:37:22.823Z,76.81
2022-09-12T08:39:55.762Z,76.76
2022-09-12T08:42:57.671Z,76.55
2022-09-12T08:45:57.190Z,76.70
2022-09-12T08:48:28.155Z,76.85
2022-09-12T08:50:59.258Z,76.68
2022-09-12T08:53:33.193Z,77.11
2022-09-12T08:56:06.440Z,77.04
2022-09-12T08:58:42.367Z,79.15
2022-09-12T09:01:36.051Z,80.90
2022-09-12T09:04:40.255Z,81.49
2022-09-12T09:07:52.179Z,81.08
2022-09-12T09:10:41.348Z,82.07
2022-09-12T09:14:10.794Z,82.21
2022-09-12T09:16:51.490Z,82.36
2022-09-12T09:19:48.828Z,82.29
2022-09-12T09:22:38.359Z,82.38
2022-09-12T09:25:23.105Z,82.28
2022-09-12T09:28:10.133Z,82.16
2022-09-12T09:30:49.674Z,82.07
2022-09-12T09:33:31.069Z,81.73
2022-09-12T09:36:14.204Z,81.89
2022-09-12T09:38:54.223Z,81.62
2022-09-12T09:41:43.217Z,81.92
2022-09-12T09:44:14.415Z,81.83
2022-09-12T09:46:45.343Z,82.01
2022-09-12T09:49:19.013Z,82.10
2022-09-12T09:51:50.636Z,81.91
2022-09-12T09:54:29.410Z,81.61
2022-09-12T09:57:00.278Z,81.66
2022-09-12T09:59:34.041Z,81.39
2022-09-12T10:02:25.972Z,81.17
2022-09-12T10:05:01.524Z,81.25
2022-09-12T10:07:32.309Z,81.39
2022-09-12T10:10:19.154Z,81.19
2022-09-12T10:12:49.974Z,81.13
2022-09-12T10:15:28.853Z,81.13
2022-09-12T10:18:01.621Z,81.38
2022-09-12T10:20:36.683Z,81.32
2022-09-12T10:23:32.882Z,81.25
2022-09-12T10:26:07.887Z,80.92
2022-09-12T10:28:51.170Z,81.11
2022-09-12T10:31:32.793Z,80.84
2022-09-12T10:34:04.119Z,80.95
2022-09-12T10:36:41.567Z,81.30
2022-09-12T10:39:21.405Z,81.55
2022-09-12T10:41:52.364Z,81.18
2022-09-12T10:44:33.390Z,81.42
2022-09-12T10:47:23.952Z,81.09
2022-09-12T10:49:54.946Z,81.03
2022-09-12T10:52:27.581Z,81.26
2022-09-12T10:54:58.586Z,81.21
2022-09-12T10:58:05.055Z,81.48
2022-09-12T11:00:42.631Z,81.52
2022-09-12T11:03:25.398Z,81.21
2022-09-12T11:06:03.246Z,81.46
2022-09-12T11:08:58.656Z,81.71
2022-09-12T11:11:44.569Z,81.60
2022-09-12T11:14:28.222Z,81.24
2022-09-12T11:16:59.020Z,81.47
2022-09-12T11:19:49.897Z,81.60
2022-09-12T11:22:31.857Z,81.56
2022-09-12T11:25:32.838Z,81.72
2022-09-12T11:28:29.049Z,81.66
2022-09-12T11:31:37.243Z,81.77
2022-09-12T11:34:19.296Z,81.59
2022-09-12T11:37:26.634Z,81.75
2022-09-12T11:40:03.015Z,81.70
2022-09-12T11:42:38.380Z,81.62
2022-09-12T11:45:38.894Z,81.54
2022-09-12T11:48:17.521Z,81.53
2022-09-12T11:50:48.372Z,81.67
2022-09-12T11:53:26.167Z,81.77
2022-09-12T11:56:21.238Z,81.83
2022-09-12T11:59:28.035Z,81.76
2022-09-12T12:02:05.406Z,81.74
2022-09-12T12:04:46.885Z,81.82
2022-09-12T12:07:18.021Z,81.72
2022-09-12T12:09:54.719Z,82.21
2022-09-12T13:45:56.868Z,84.69
2022-09-12T13:48:28.782Z,84.96
2022-09-12T13:51:03.540Z,84.68
2022-09-12T13:53:46.969Z,84.35
2022-09-12T13:56:22.733Z,83.88
2022-09-12T13:59:01.035Z,83.87
2022-09-12T14:01:49.514Z,83.53
2022-09-12T14:04:44.169Z,83.65
2022-09-12T14:07:23.044Z,83.68
2022-09-12T14:09:59.750Z,83.20
2022-09-12T14:12:42.903Z,83.76
2022-09-12T14:15:27.159Z,83.40
2022-09-12T14:18:04.110Z,83.40
2022-09-12T14:20:39.402Z,83.13
2022-09-12T14:23:24.137Z,82.95
2022-09-12T14:25:54.977Z,83.00
2022-09-12T14:28:27.228Z,83.36
2022-09-12T14:31:09.852Z,83.42
2022-09-12T14:33:58.635Z,83.36
2022-09-12T14:36:35.025Z,83.34
2022-09-12T14:39:20.575Z,83.86
2022-09-12T14:41:52.881Z,83.53
2022-09-12T14:44:27.968Z,83.40
2022-09-12T14:47:03.515Z,83.31
2022-09-12T14:49:37.845Z,83.38
2022-09-12T14:52:12.794Z,83.13
2022-09-12T14:54:45.568Z,82.95
2022-09-12T14:57:42.861Z,83.00
2022-09-12T15:00:16.897Z,82.74
2022-09-12T15:02:48.049Z,82.86
2022-09-12T15:05:24.939Z,82.90
2022-09-12T15:08:00.785Z,82.99
2022-09-12T15:10:40.730Z,82.88
2022-09-12T15:13:19.274Z,82.97
2022-09-12T15:15:53.343Z,82.66
2022-09-12T15:18:26.132Z,82.80
2022-09-12T15:21:08.671Z,82.98
2022-09-12T15:23:50.211Z,83.20
2022-09-12T15:26:24.973Z,82.87
2022-09-12T15:28:56.802Z,82.80
2022-09-12T15:31:33.384Z,82.97
2022-09-12T15:34:05.249Z,82.67
2022-09-12T15:36:36.138Z,82.63
2022-09-12T15:39:07.428Z,82.52
2022-09-12T15:41:40.732Z,82.68
2022-09-12T15:44:15.172Z,82.88
2022-09-12T15:46:46.184Z,82.95
2022-09-12T15:49:17.352Z,82.84
2022-09-12T15:51:48.074Z,83.43
2022-09-12T15:54:21.419Z,83.27
2022-09-12T15:56:53.018Z,83.22
2022-09-12T15:59:24.076Z,83.14
2022-09-12T16:01:55.017Z,83.43
2022-09-12T16:04:28.189Z,83.30
2022-09-12T16:06:59.926Z,83.00
2022-09-12T16:09:30.651Z,83.20
2022-09-12T16:12:01.504Z,83.13
2022-09-12T16:14:32.410Z,83.39
2022-09-12T16:17:03.206Z,83.55
2022-09-12T16:19:33.910Z,83.84
2022-09-12T16:22:04.883Z,83.31
2022-09-12T16:24:35.868Z,83.44
2022-09-12T16:27:07.229Z,83.59
2022-09-12T16:29:38.170Z,83.41
2022-09-12T16:32:09.449Z,83.41
2022-09-12T16:34:40.366Z,83.27
2022-09-12T16:37:11.242Z,83.37
2022-09-12T16:39:42.443Z,83.33
2022-09-12T16:42:13.468Z,83.40
2022-09-12T16:44:44.474Z,83.56
2022-09-12T16:47:15.785Z,83.31
2022-09-12T16:49:46.973Z,83.44
2022-09-12T16:52:19.447Z,83.31
2022-09-12T16:54:50.376Z,83.32
2022-09-12T16:57:21.005Z,83.69
2022-09-12T16:59:52.483Z,83.31
2022-09-12T17:02:23.453Z,83.59
2022-09-12T17:04:55.365Z,83.30
2022-09-12T17:07:26.625Z,83.71
2022-09-12T17:09:57.533Z,83.46
2022-09-12T17:12:28.716Z,83.72
2022-09-12T17:14:59.578Z,83.73
2022-09-12T17:17:30.608Z,83.85
2022-09-12T17:20:01.250Z,83.93
2022-09-12T17:22:32.234Z,83.67
2022-09-12T17:25:02.915Z,83.61
2022-09-12T17:27:33.885Z,83.49
2022-09-12T17:30:04.902Z,83.64
2022-09-12T17:32:35.661Z,83.63
2022-09-12T17:35:06.455Z,83.70
2022-09-12T17:37:38.833Z,83.95
2022-09-12T17:40:10.399Z,83.66
2022-09-12T17:42:41.737Z,83.69
2022-09-12T17:45:15.127Z,83.80
2022-09-12T17:47:48.903Z,83.80
2022-09-12T17:50:31.682Z,83.84
2022-09-12T17:53:03.377Z,83.56
2022-09-12T17:55:35.083Z,83.61
2022-09-12T17:58:06.774Z,83.81
2022-09-12T18:00:56.437Z,83.49
2022-09-12T18:03:28.020Z,83.71
2022-09-12T18:05:59.805Z,83.56
2022-09-12T18:08:30.721Z,83.55
2022-09-12T18:11:08.330Z,83.63
2022-09-12T18:13:39.132Z,84.11
2022-09-12T18:16:12.503Z,83.81
2022-09-12T18:18:44.083Z,83.61
2022-09-12T18:21:15.478Z,83.58
2022-09-12T18:23:45.895Z,83.38
2022-09-12T18:26:17.085Z,83.25
2022-09-12T18:28:48.004Z,83.17
2022-09-12T18:31:21.323Z,83.21
2022-09-12T18:33:52.540Z,83.21
2022-09-12T18:36:23.888Z,83.13
2022-09-12T18:38:54.663Z,83.03
2022-09-12T18:41:27.588Z,82.83
2022-09-12T18:44:03.087Z,83.20
2022-09-12T18:46:35.850Z,82.70
2022-09-12T18:49:07.400Z,82.92
2022-09-12T18:51:40.002Z,82.56
2022-09-12T18:54:15.864Z,82.48
2022-09-12T18:56:48.307Z,82.51
2022-09-12T18:59:19.330Z,82.08
2022-09-12T19:01:50.781Z,82.42
2022-09-12T19:04:21.334Z,82.38
2022-09-12T19:06:52.238Z,82.43
2022-09-12T19:09:23.690Z,82.27
2022-09-12T19:11:55.301Z,82.02
2022-09-12T19:14:28.613Z,82.15
2022-09-12T19:16:59.572Z,81.95
2022-09-12T19:19:30.430Z,81.99
2022-09-12T19:22:01.244Z,81.78
2022-09-12T19:24:31.908Z,81.81
2022-09-12T19:27:02.611Z,82.07
2022-09-12T19:29:33.402Z,81.86
2022-09-12T19:32:04.414Z,81.85
2022-09-12T19:34:35.273Z,81.83
2022-09-12T19:37:06.829Z,82.06
2022-09-12T19:39:37.555Z,81.91
2022-09-12T19:42:08.246Z,81.84
2022-09-12T19:44:38.932Z,81.54
2022-09-12T19:47:09.592Z,81.76
2022-09-12T19:49:40.333Z,81.10
2022-09-12T19:52:13.399Z,81.39
2022-09-12T19:54:46.437Z,80.90
2022-09-12T19:57:17.264Z,80.69
2022-09-12T19:59:48.918Z,81.34
2022-09-12T20:02:19.807Z,81.12
2022-09-12T20:04:50.616Z,81.15
2022-09-12T20:07:21.864Z,81.07
2022-09-12T20:09:52.836Z,80.88
2022-09-12T20:12:23.851Z,81.06
2022-09-12T20:14:54.558Z,81.01
2022-09-12T20:17:25.216Z,81.08
2022-09-12T20:19:55.922Z,81.07
2022-09-12T20:22:26.939Z,80.89
2022-09-12T20:24:57.620Z,80.81
2022-09-12T20:27:28.703Z,80.80
2022-09-12T20:30:00.939Z,80.79
2022-09-12T20:32:32.318Z,80.50
2022-09-12T20:35:03.069Z,80.48
2022-09-12T20:37:34.009Z,80.70
2022-09-12T20:40:05.564Z,80.81
2022-09-12T20:42:35.963Z,80.70
2022-09-12T20:45:07.944Z,80.55
2022-09-12T20:47:38.785Z,80.67
2022-09-12T20:50:09.790Z,80.66
2022-09-12T20:52:40.554Z,80.65
2022-09-12T20:55:12.101Z,80.77
2022-09-12T20:57:42.358Z,80.91
2022-09-12T21:00:14.041Z,80.82
2022-09-12T21:02:44.897Z,81.06
2022-09-12T21:05:15.801Z,80.89
2022-09-12T21:07:46.603Z,80.99
2022-09-12T21:10:17.673Z,81.08
2022-09-12T21:12:48.467Z,80.64
2022-09-12T21:15:19.279Z,80.86
2022-09-12T21:17:49.974Z,81.14
2022-09-12T21:20:20.941Z,80.75
2022-09-12T21:22:51.609Z,80.79
2022-09-12T21:25:22.376Z,80.99
2022-09-12T21:27:53.170Z,80.73
2022-09-12T21:30:24.074Z,80.75
2022-09-12T21:32:54.880Z,80.91
2022-09-12T21:35:25.583Z,80.88
2022-09-12T21:37:56.571Z,80.73
2022-09-12T21:40:27.319Z,80.84
2022-09-12T21:42:58.156Z,80.61
2022-09-12T21:45:29.072Z,80.79
2022-09-12T21:48:00.264Z,80.66
2022-09-12T21:50:31.172Z,80.84
2022-09-12T21:53:01.961Z,81.04
2022-09-12T21:55:32.961Z,81.10
2022-09-12T21:58:03.585Z,81.23
2022-09-12T22:00:34.710Z,81.33
2022-09-12T22:03:06.110Z,81.45
2022-09-12T22:05:39.306Z,81.09
2022-09-12T22:08:16.530Z,81.16
2022-09-12T22:10:47.635Z,81.31
2022-09-12T22:13:19.517Z,81.29
2022-09-12T22:15:59.716Z,81.23
2022-09-12T22:18:32.376Z,81.47
2022-09-12T22:21:08.193Z,81.25
2022-09-12T22:23:58.106Z,81.61
2022-09-12T22:26:32.856Z,81.60
2022-09-12T22:29:08.081Z,81.68
2022-09-12T22:31:40.448Z,81.40
2022-09-12T22:34:14.969Z,81.08
2022-09-12T22:36:47.163Z,81.42
2022-09-12T22:39:18.598Z,81.54
2022-09-12T22:41:49.876Z,81.57
2022-09-12T22:44:20.605Z,81.53
2022-09-12T22:46:52.643Z,81.82
2022-09-12T22:49:23.606Z,81.78
2022-09-12T22:51:56.102Z,82.16
2022-09-12T22:54:30.744Z,81.82
2022-09-12T22:57:01.917Z,81.96
2022-09-12T22:59:33.717Z,82.12
2022-09-12T23:02:07.464Z,82.31
2022-09-12T23:04:40.358Z,82.27
2022-09-12T23:07:12.166Z,82.25
2022-09-12T23:09:42.945Z,82.28
2022-09-12T23:12:18.221Z,82.34
2022-09-12T23:14:50.078Z,82.33
2022-09-12T23:17:20.863Z,82.49
2022-09-12T23:19:52.114Z,82.26
2022-09-12T23:22:23.112Z,82.59
2022-09-12T23:24:54.074Z,82.56
2022-09-12T23:27:25.886Z,82.38
2022-09-12T23:29:56.919Z,82.78
2022-09-12T23:32:28.506Z,82.48
2022-09-12T23:35:00.155Z,82.54
2022-09-12T23:37:32.259Z,82.58
2022-09-12T23:40:03.214Z,82.44
2022-09-12T23:42:34.112Z,82.60
2022-09-12T23:45:09.250Z,82.51
2022-09-12T23:47:45.564Z,82.81
2022-09-12T23:50:18.511Z,82.53
2022-09-12T23:52:49.606Z,82.50
2022-09-12T23:55:24.062Z,82.86
2022-09-12T23:57:55.831Z,82.46
